createdAt,value
2018-01-12T00:00:13.212Z,101.20
2018-01-12T00:01:18.785Z,103.75
2018-01-12T00:02:22.851Z,102.72
2018-01-12T00:03:26.985Z,95.97
2018-01-12T00:04:31.503Z,97.45
2018-01-12T00:05:35.744Z,97.05
2018-01-12T00:06:40.184Z,94.40
2018-01-12T00:07:45.166Z,98.82
2018-01-12T00:08:49.371Z,106.22
2018-01-12T00:09:53.603Z,97.78
2018-01-12T00:10:57.862Z,95.43
2018-01-12T00:12:02.126Z,100.28
2018-01-12T00:13:06.993Z,98.22
2018-01-12T00:14:11.024Z,100.50
2018-01-12T00:15:15.149Z,95.05
2018-01-12T00:16:19.889Z,94.40
2018-01-12T00:17:24.015Z,91.57
2018-01-12T00:18:28.120Z,100.65
2018-01-12T00:19:32.248Z,97.20
2018-01-12T00:20:36.446Z,104.07
2018-01-12T00:21:40.506Z,94.80
2018-01-12T00:22:44.548Z,96.40
2018-01-12T00:23:48.566Z,87.50
2018-01-12T00:24:52.766Z,101.45
2018-01-12T00:25:57.007Z,83.65
2018-01-12T00:27:01.074Z,93.17
2018-01-12T00:28:05.254Z,84.80
2018-01-12T00:29:09.356Z,95.03
2018-01-12T00:30:13.454Z,90.77
2018-01-12T00:31:17.501Z,90.60
2018-01-12T00:32:22.464Z,88.37
2018-01-12T00:33:26.625Z,90.25
2018-01-12T00:34:31.665Z,86.30
2018-01-12T00:35:35.834Z,89.87
2018-01-12T00:36:40.062Z,85.30
2018-01-12T00:37:45.101Z,92.50
2018-01-12T00:38:49.412Z,86.43
2018-01-12T00:39:53.628Z,85.60
2018-01-12T00:40:57.870Z,88.20
2018-01-12T00:42:03.685Z,85.22
2018-01-12T00:43:08.358Z,83.93
2018-01-12T00:44:13.346Z,80.60
2018-01-12T00:45:17.638Z,82.43
2018-01-12T00:46:22.095Z,86.35
2018-01-12T00:47:27.262Z,80.82
2018-01-12T00:48:31.496Z,81.28
2018-01-12T00:49:35.896Z,86.55
2018-01-12T00:50:40.053Z,93.60
2018-01-12T00:51:45.222Z,91.32
2018-01-12T00:52:49.618Z,78.50
2018-01-12T00:53:53.885Z,83.80
2018-01-12T00:54:58.991Z,82.00
2018-01-12T00:56:03.432Z,85.93
2018-01-12T00:57:09.280Z,83.25
2018-01-12T00:58:13.624Z,82.60
2018-01-12T00:59:17.735Z,76.80
2018-01-12T01:00:21.820Z,79.18
2018-01-12T01:01:25.783Z,87.85
2018-01-12T01:02:30.810Z,82.97
2018-01-12T01:03:35.142Z,73.90
2018-01-12T01:04:39.360Z,76.20
2018-01-12T01:05:43.619Z,82.00
2018-01-12T01:06:48.510Z,92.90
2018-01-12T01:07:52.626Z,78.82
2018-01-12T01:08:56.693Z,77.78
2018-01-12T01:10:00.682Z,73.75
2018-01-12T01:11:04.724Z,78.37
2018-01-12T01:12:08.794Z,83.25
2018-01-12T01:13:12.915Z,76.07
2018-01-12T01:14:17.172Z,72.68
2018-01-12T01:15:21.137Z,77.43
2018-01-12T01:16:25.353Z,79.22
2018-01-12T01:17:30.342Z,73.22
2018-01-12T01:18:35.460Z,76.65
2018-01-12T01:19:39.697Z,75.20
2018-01-12T01:20:43.877Z,79.07
2018-01-12T01:21:48.152Z,71.90
2018-01-12T01:22:52.240Z,70.03
2018-01-12T01:23:56.341Z,76.62
2018-01-12T01:25:00.736Z,79.47
2018-01-12T01:26:06.149Z,72.53
2018-01-12T01:27:10.635Z,74.63
2018-01-12T01:28:15.546Z,74.72
2018-01-12T01:29:19.728Z,69.82
2018-01-12T01:30:24.238Z,72.90
2018-01-12T01:31:28.486Z,71.12
2018-01-12T01:32:32.728Z,76.10
2018-01-12T01:33:37.836Z,80.82
2018-01-12T01:34:41.939Z,72.35
2018-01-12T01:35:46.229Z,78.12
2018-01-12T01:36:50.608Z,80.80
2018-01-12T01:37:54.762Z,82.72
2018-01-12T01:38:59.100Z,72.07
2018-01-12T01:40:03.368Z,72.05
2018-01-12T01:41:07.556Z,78.28
2018-01-12T01:42:11.689Z,77.70
2018-01-12T01:43:15.913Z,79.15
2018-01-12T01:44:20.896Z,78.93
2018-01-12T01:45:25.128Z,74.95
2018-01-12T01:46:29.868Z,80.17
2018-01-12T01:47:34.265Z,78.07
2018-01-12T01:48:42.931Z,80.50
2018-01-12T01:49:46.961Z,79.62
2018-01-12T01:50:51.164Z,84.75
2018-01-12T01:51:55.753Z,86.63
2018-01-12T01:52:59.858Z,80.20
2018-01-12T01:54:04.358Z,86.80
2018-01-12T01:55:09.065Z,81.00
2018-01-12T01:56:13.175Z,80.60
2018-01-12T01:57:17.472Z,81.70
2018-01-12T01:58:21.525Z,80.32
2018-01-12T01:59:25.653Z,85.97
2018-01-12T02:00:29.782Z,78.65
2018-01-12T02:01:33.892Z,77.82
2018-01-12T02:02:37.917Z,85.87
2018-01-12T02:03:43.509Z,80.62
2018-01-12T02:04:47.860Z,80.00
2018-01-12T02:05:52.767Z,81.43
2018-01-12T02:06:57.357Z,84.45
2018-01-12T02:08:01.518Z,83.50
2018-01-12T02:09:06.906Z,77.68
2018-01-12T02:10:11.098Z,83.32
2018-01-12T02:11:15.576Z,78.00
2018-01-12T02:12:19.921Z,76.13
2018-01-12T02:13:24.149Z,81.22
2018-01-12T02:14:28.314Z,79.55
2018-01-12T02:15:32.473Z,83.35
2018-01-12T02:16:36.629Z,86.10
2018-01-12T02:17:40.781Z,86.80
2018-01-12T02:18:45.254Z,87.03
2018-01-12T02:19:49.570Z,86.23
2018-01-12T02:20:53.594Z,88.93
2018-01-12T02:21:57.680Z,86.47
2018-01-12T02:23:01.698Z,80.55
2018-01-12T02:24:05.740Z,89.13
2018-01-12T02:25:09.742Z,81.77
2018-01-12T02:26:13.847Z,83.15
2018-01-12T02:27:17.920Z,90.28
2018-01-12T02:28:22.636Z,90.45
2018-01-12T02:29:27.919Z,86.68
2018-01-12T02:30:32.108Z,86.82
2018-01-12T02:31:36.338Z,86.03
2018-01-12T02:32:40.453Z,86.05
2018-01-12T02:33:44.494Z,92.12
2018-01-12T02:34:48.498Z,85.93
2018-01-12T02:35:52.483Z,77.05
2018-01-12T02:36:57.248Z,80.57
2018-01-12T02:38:01.298Z,88.75
2018-01-12T02:39:06.468Z,87.10
2018-01-12T02:40:11.022Z,80.00
2018-01-12T02:41:15.522Z,78.28
2018-01-12T02:42:19.755Z,85.15
2018-01-12T02:43:24.750Z,83.30
2018-01-12T02:44:28.902Z,89.62
2018-01-12T02:45:32.998Z,83.10
2018-01-12T02:46:37.066Z,82.30
2018-01-12T02:47:41.349Z,87.18
2018-01-12T02:48:45.292Z,81.82
2018-01-12T02:49:50.368Z,85.57
2018-01-12T02:50:54.617Z,86.68
2018-01-12T02:51:59.757Z,94.07
2018-01-12T02:53:04.568Z,89.22
2018-01-12T02:54:09.402Z,87.75
2018-01-12T02:55:13.494Z,91.70
2018-01-12T02:56:17.623Z,92.25
2018-01-12T02:57:21.950Z,81.18
2018-01-12T02:58:26.393Z,85.73
2018-01-12T02:59:31.497Z,79.22
2018-01-12T03:00:35.512Z,91.45
2018-01-12T03:01:39.568Z,83.82
2018-01-12T03:02:47.886Z,84.68
2018-01-12T03:03:51.849Z,88.85
2018-01-12T03:04:58.530Z,91.03
2018-01-12T03:06:18.089Z,91.37
2018-01-12T03:07:23.032Z,97.60
2018-01-12T03:08:27.426Z,91.20
2018-01-12T03:09:32.159Z,92.82
2018-01-12T03:10:39.696Z,91.93
2018-01-12T03:11:44.661Z,88.32
2018-01-12T03:12:49.449Z,87.03
2018-01-12T03:13:54.041Z,97.03
2018-01-12T03:14:58.222Z,84.40
2018-01-12T03:16:02.811Z,94.18
2018-01-12T03:17:07.239Z,90.05
2018-01-12T03:18:11.726Z,93.22
2018-01-12T03:19:16.047Z,93.18
2018-01-12T03:20:20.312Z,94.20
2018-01-12T03:21:24.518Z,90.38
2018-01-12T03:22:29.394Z,96.18
2018-01-12T03:23:33.912Z,103.75
2018-01-12T03:24:38.434Z,89.87
2018-01-12T03:25:42.944Z,88.40
2018-01-12T03:26:47.734Z,91.30
2018-01-12T03:27:51.920Z,92.70
2018-01-12T03:28:56.119Z,93.82
2018-01-12T03:30:01.010Z,89.25
2018-01-12T03:31:05.812Z,93.37
2018-01-12T03:32:10.086Z,86.45
2018-01-12T03:33:14.384Z,89.80
2018-01-12T03:34:18.508Z,89.22
2018-01-12T03:35:22.716Z,93.93
2018-01-12T03:36:27.251Z,90.07
2018-01-12T03:37:31.553Z,90.75
2018-01-12T03:38:35.654Z,99.35
2018-01-12T03:39:39.720Z,90.70
2018-01-12T03:40:43.802Z,92.62
2018-01-12T03:41:47.808Z,85.65
2018-01-12T03:42:52.746Z,91.40
2018-01-12T03:43:56.856Z,92.35
2018-01-12T03:45:00.959Z,93.45
2018-01-12T03:46:05.057Z,83.68
2018-01-12T03:47:09.450Z,86.18
2018-01-12T03:48:14.077Z,82.37
2018-01-12T03:49:18.443Z,93.05
2018-01-12T03:50:23.515Z,86.18
2018-01-12T03:51:27.833Z,102.07
2018-01-12T03:52:32.105Z,86.82
2018-01-12T03:53:36.547Z,79.53
2018-01-12T03:54:40.666Z,86.72
2018-01-12T03:55:44.848Z,89.55
2018-01-12T03:56:49.040Z,85.22
2018-01-12T03:57:53.209Z,81.05
2018-01-12T03:58:58.430Z,86.12
2018-01-12T04:00:03.403Z,81.07
2018-01-12T04:01:07.537Z,86.35
2018-01-12T04:02:11.764Z,79.60
2018-01-12T04:03:16.714Z,84.87
2018-01-12T04:04:20.867Z,82.82
2018-01-12T04:05:26.200Z,92.68
2018-01-12T04:06:30.812Z,81.03
2018-01-12T04:07:36.317Z,90.18
2018-01-12T04:08:41.901Z,80.38
2018-01-12T04:09:47.514Z,81.72
2018-01-12T04:10:52.310Z,87.35
2018-01-12T04:11:56.726Z,85.80
2018-01-12T04:13:01.228Z,81.72
2018-01-12T04:14:05.368Z,86.53
2018-01-12T04:15:09.602Z,82.85
2018-01-12T04:16:13.890Z,86.80
2018-01-12T04:17:18.876Z,87.22
2018-01-12T04:18:23.201Z,82.97
2018-01-12T04:19:27.734Z,85.43
2018-01-12T04:20:32.463Z,96.20
2018-01-12T04:21:37.380Z,95.55
2018-01-12T04:22:42.322Z,92.57
2018-01-12T04:23:46.498Z,97.78
2018-01-12T04:24:51.437Z,92.30
2018-01-12T04:25:56.056Z,92.95
2018-01-12T04:27:00.286Z,100.75
2018-01-12T04:28:04.572Z,99.50
2018-01-12T04:29:08.745Z,111.32
2018-01-12T04:30:12.852Z,106.60
2018-01-12T04:31:17.774Z,107.63
2018-01-12T04:32:22.798Z,112.30
2018-01-12T04:33:27.540Z,107.45
2018-01-12T04:34:31.498Z,112.68
2018-01-12T04:35:35.644Z,116.20
2018-01-12T04:36:39.735Z,109.70
2018-01-12T04:37:43.736Z,112.65
2018-01-12T04:38:48.098Z,111.18
2018-01-12T04:39:53.075Z,118.30
2018-01-12T04:40:57.140Z,116.75
2018-01-12T04:42:02.131Z,109.82
2018-01-12T04:43:06.129Z,117.62
2018-01-12T04:44:10.106Z,123.57
2018-01-12T04:45:14.352Z,121.30
2018-01-12T04:46:18.537Z,116.70
2018-01-12T04:47:22.744Z,116.10
2018-01-12T04:48:26.900Z,120.25
2018-01-12T04:49:31.302Z,120.25
2018-01-12T04:50:36.249Z,113.70
2018-01-12T04:51:40.465Z,116.07
2018-01-12T04:52:44.618Z,116.18
2018-01-12T04:53:49.080Z,120.82
2018-01-12T04:54:53.489Z,123.87
2018-01-12T04:55:57.721Z,112.25
2018-01-12T04:57:01.892Z,121.65
2018-01-12T04:58:06.185Z,119.22
2018-01-12T04:59:10.510Z,127.45
2018-01-12T05:00:14.696Z,119.40
2018-01-12T05:01:19.271Z,124.78
2018-01-12T05:02:23.526Z,123.95
2018-01-12T05:03:27.676Z,128.82
2018-01-12T05:04:31.931Z,122.70
2018-01-12T05:05:36.202Z,127.97
2018-01-12T05:06:41.177Z,123.28
2018-01-12T05:07:45.720Z,125.28
2018-01-12T05:08:49.989Z,124.45
2018-01-12T05:09:54.221Z,123.97
2018-01-12T05:10:58.628Z,134.48
2018-01-12T05:12:02.871Z,120.70
2018-01-12T05:13:07.930Z,121.57
2018-01-12T05:14:12.348Z,123.07
2018-01-12T05:15:16.647Z,119.03
2018-01-12T05:16:20.879Z,126.53
2018-01-12T05:17:25.005Z,131.12
2018-01-12T05:18:29.222Z,131.85
2018-01-12T05:19:33.463Z,129.73
2018-01-12T05:20:37.941Z,130.65
2018-01-12T05:21:42.853Z,122.57
2018-01-12T05:22:47.006Z,129.77
2018-01-12T05:23:51.145Z,121.33
2018-01-12T05:24:55.369Z,139.33
2018-01-12T05:25:59.733Z,128.35
2018-01-12T05:27:04.208Z,125.65
2018-01-12T05:28:09.149Z,125.70
2018-01-12T05:29:13.476Z,130.20
2018-01-12T05:30:17.766Z,135.32
2018-01-12T05:31:21.950Z,134.73
2018-01-12T05:32:26.966Z,127.50
2018-01-12T05:33:35.031Z,137.67
2018-01-12T05:34:39.697Z,132.20
2018-01-12T05:35:44.223Z,133.00
2018-01-12T05:36:48.514Z,127.40
2018-01-12T05:37:52.630Z,145.05
2018-01-12T05:38:56.648Z,132.15
2018-01-12T05:40:01.632Z,133.00
2018-01-12T05:41:05.674Z,134.75
2018-01-12T05:42:10.050Z,137.43
2018-01-12T05:43:15.006Z,145.73
2018-01-12T05:44:19.084Z,141.73
2018-01-12T05:45:23.289Z,150.87
2018-01-12T05:46:27.511Z,154.30
2018-01-12T05:47:31.576Z,148.15
2018-01-12T05:48:35.654Z,150.70
2018-01-12T05:49:40.484Z,158.80
2018-01-12T05:50:45.308Z,172.50
2018-01-12T05:51:50.102Z,157.02
2018-01-12T05:52:54.051Z,162.07
2018-01-12T05:53:58.184Z,163.97
2018-01-12T05:55:02.324Z,170.20
2018-01-12T05:56:07.329Z,166.02
2018-01-12T05:57:11.916Z,162.23
2018-01-12T05:58:16.038Z,174.10
2018-01-12T05:59:20.254Z,177.93
2018-01-12T06:00:24.429Z,180.75
2018-01-12T06:05:46.949Z,181.75
2018-01-12T06:06:51.097Z,171.05
2018-01-12T06:07:55.255Z,179.73
2018-01-12T06:08:59.441Z,172.20
2018-01-12T06:10:04.394Z,173.70
2018-01-12T06:11:08.633Z,172.23
2018-01-12T06:12:12.819Z,181.17
2018-01-12T06:13:17.770Z,172.43
2018-01-12T06:14:21.822Z,165.73
2018-01-12T06:15:25.836Z,176.68
2018-01-12T06:16:29.949Z,193.52
2018-01-12T06:17:34.031Z,178.27
2018-01-12T06:18:38.146Z,173.80
2018-01-12T06:19:42.225Z,188.30
2018-01-12T06:20:46.276Z,185.73
2018-01-12T06:21:50.433Z,181.90
2018-01-12T06:22:54.708Z,170.12
2018-01-12T06:24:00.117Z,189.10
2018-01-12T06:25:04.225Z,173.20
2018-01-12T06:26:08.244Z,174.50
2018-01-12T06:27:13.065Z,181.73
2018-01-12T06:28:17.184Z,177.77
2018-01-12T06:29:22.241Z,189.60
2018-01-12T06:30:26.261Z,175.97
2018-01-12T06:31:30.321Z,176.95
2018-01-12T06:32:34.464Z,184.90
2018-01-12T06:33:38.613Z,182.57
2018-01-12T06:34:43.532Z,192.98
2018-01-12T06:35:48.149Z,215.02
2018-01-12T06:36:53.086Z,206.82
2018-01-12T06:37:57.298Z,198.68
2018-01-12T06:39:01.637Z,206.77
2018-01-12T06:40:05.850Z,206.27
2018-01-12T06:41:10.159Z,206.23
2018-01-12T06:42:14.724Z,198.43
2018-01-12T06:43:19.008Z,219.60
2018-01-12T06:44:24.062Z,212.80
2018-01-12T06:45:28.287Z,225.75
2018-01-12T06:46:32.565Z,218.30
2018-01-12T06:47:36.814Z,240.85
2018-01-12T06:48:41.373Z,233.55
2018-01-12T06:49:46.643Z,233.95
2018-01-12T06:50:50.799Z,230.82
2018-01-12T06:51:55.652Z,239.70
2018-01-12T06:52:59.910Z,241.35
2018-01-12T06:54:04.885Z,233.77
2018-01-12T06:55:09.417Z,238.05
2018-01-12T06:56:13.676Z,236.40
2018-01-12T06:57:18.592Z,262.80
2018-01-12T06:58:23.430Z,263.70
2018-01-12T06:59:27.653Z,243.50
2018-01-12T07:00:32.514Z,249.10
2018-01-12T07:01:36.702Z,252.00
2018-01-12T07:02:40.842Z,241.23
2018-01-12T07:03:46.230Z,245.05
2018-01-12T07:04:50.462Z,250.50
2018-01-12T07:05:55.384Z,249.57
2018-01-12T07:06:59.568Z,235.13
2018-01-12T07:08:03.838Z,233.77
2018-01-12T07:09:07.933Z,234.98
2018-01-12T07:10:11.977Z,265.42
2018-01-12T07:11:16.263Z,243.20
2018-01-12T07:12:20.271Z,218.95
2018-01-12T07:13:24.357Z,237.45
2018-01-12T07:14:28.455Z,234.05
2018-01-12T07:15:32.498Z,230.98
2018-01-12T07:16:36.529Z,232.25
2018-01-12T07:17:41.540Z,227.90
2018-01-12T07:18:46.480Z,210.60
2018-01-12T07:19:50.494Z,217.30
2018-01-12T07:23:10.754Z,216.88
2018-01-12T07:24:15.602Z,209.40
2018-01-12T07:25:19.810Z,216.10
2018-01-12T07:26:24.621Z,198.40
2018-01-12T07:27:28.644Z,202.18
2018-01-12T07:28:32.848Z,208.45
2018-01-12T07:29:37.303Z,189.10
2018-01-12T07:30:41.450Z,206.68
2018-01-12T07:31:45.727Z,210.18
2018-01-12T07:32:50.006Z,213.93
2018-01-12T07:33:54.271Z,217.90
2018-01-12T07:34:59.180Z,207.23
2018-01-12T07:36:03.749Z,198.95
2018-01-12T07:37:07.909Z,205.82
2018-01-12T07:38:11.983Z,197.57
2018-01-12T07:39:16.754Z,219.10
2018-01-12T07:40:20.743Z,198.27
2018-01-12T07:41:26.013Z,195.75
2018-01-12T07:42:30.479Z,189.10
2018-01-12T07:43:34.758Z,197.30
2018-01-12T07:44:39.017Z,205.20
2018-01-12T07:45:43.156Z,205.57
2018-01-12T07:46:48.140Z,232.90
2018-01-12T07:47:52.662Z,227.98
2018-01-12T07:48:56.841Z,233.70
2018-01-12T07:50:01.644Z,214.45
2018-01-12T07:51:05.891Z,240.55
2018-01-12T07:52:10.118Z,236.80
2018-01-12T07:53:19.278Z,210.20
2018-01-12T07:54:23.729Z,238.65
2018-01-12T07:55:27.908Z,234.18
2018-01-12T07:56:32.081Z,230.07
2018-01-12T07:57:36.278Z,225.93
2018-01-12T07:58:41.204Z,223.70
2018-01-12T07:59:45.418Z,210.48
2018-01-12T08:00:54.108Z,219.37
2018-01-12T08:04:05.364Z,224.02
2018-01-12T08:05:09.598Z,223.75
2018-01-12T08:06:14.893Z,218.80
2018-01-12T08:07:19.039Z,218.95
2018-01-12T08:08:23.241Z,217.90
2018-01-12T08:09:27.523Z,200.90
2018-01-12T08:10:31.795Z,195.25
2018-01-12T08:11:35.910Z,202.75
2018-01-12T08:12:40.605Z,206.40
2018-01-12T08:13:44.784Z,204.90
2018-01-12T08:14:48.966Z,209.40
2018-01-12T08:15:53.890Z,193.27
2018-01-12T08:16:58.835Z,216.12
2018-01-12T08:18:03.062Z,199.65
2018-01-12T08:19:07.540Z,186.60
2018-01-12T08:20:12.764Z,177.70
2018-01-12T08:21:17.473Z,162.05
2018-01-12T08:22:22.326Z,185.48
2018-01-12T08:23:26.378Z,179.55
2018-01-12T08:24:30.645Z,192.02
2018-01-12T08:25:34.949Z,193.68
2018-01-12T08:26:38.962Z,183.90
2018-01-12T08:27:43.015Z,190.07
2018-01-12T08:28:47.921Z,194.23
2018-01-12T08:29:52.161Z,175.80
2018-01-12T08:30:56.400Z,178.85
2018-01-12T08:32:00.623Z,176.40
2018-01-12T08:33:04.915Z,169.60
2018-01-12T08:34:09.099Z,169.43
2018-01-12T08:35:13.286Z,164.23
2018-01-12T08:36:17.801Z,166.37
2018-01-12T08:37:22.017Z,154.77
2018-01-12T08:38:26.243Z,147.77
2018-01-12T08:39:30.471Z,166.10
2018-01-12T08:40:34.675Z,156.23
2018-01-12T08:41:38.842Z,169.93
2018-01-12T08:42:43.124Z,166.12
2018-01-12T08:43:47.533Z,164.60
2018-01-12T08:44:51.684Z,171.50
2018-01-12T08:45:55.892Z,181.83
2018-01-12T08:47:00.261Z,172.13
2018-01-12T08:48:04.497Z,176.32
2018-01-12T08:49:08.716Z,170.48
2018-01-12T08:50:12.697Z,185.52
2018-01-12T08:51:16.734Z,194.00
2018-01-12T08:52:21.756Z,195.65
2018-01-12T08:53:26.548Z,198.98
2018-01-12T08:54:30.649Z,204.65
2018-01-12T08:55:34.834Z,213.07
2018-01-12T08:56:39.108Z,201.60
2018-01-12T08:57:43.564Z,192.43
2018-01-12T08:58:47.724Z,179.18
2018-01-12T08:59:51.926Z,197.87
2018-01-12T09:00:56.081Z,197.70
2018-01-12T09:02:00.275Z,213.23
2018-01-12T09:03:04.464Z,213.20
2018-01-12T09:04:08.789Z,206.85
2018-01-12T09:05:12.745Z,209.50
2018-01-12T09:06:16.819Z,207.57
2018-01-12T09:07:20.828Z,197.02
2018-01-12T09:08:25.788Z,192.30
2018-01-12T09:09:29.849Z,196.75
2018-01-12T09:10:34.205Z,184.07
2018-01-12T09:11:38.200Z,188.60
2018-01-12T09:12:42.177Z,178.80
2018-01-12T09:13:57.238Z,187.23
2018-01-12T09:15:07.130Z,177.52
2018-01-12T09:16:12.016Z,190.00
2018-01-12T09:17:24.900Z,180.05
2018-01-12T09:18:32.840Z,167.73
2018-01-12T09:20:57.826Z,174.62
2018-01-12T09:22:08.942Z,172.80
2018-01-12T09:23:18.470Z,171.20
2018-01-12T09:24:23.966Z,175.50
2018-01-12T09:25:28.197Z,175.75
2018-01-12T09:26:32.378Z,180.85
2018-01-12T09:27:37.332Z,183.15
2018-01-12T09:28:42.602Z,179.27
2018-01-12T09:30:17.548Z,183.77
2018-01-12T09:31:27.306Z,198.25
2018-01-12T09:32:31.933Z,169.27
2018-01-12T09:33:38.982Z,187.25
2018-01-12T09:34:55.759Z,177.20
2018-01-12T09:35:59.886Z,164.95
2018-01-12T09:37:03.913Z,167.37
2018-01-12T09:38:23.591Z,173.73
2018-01-12T09:39:37.369Z,171.52
2018-01-12T09:40:46.478Z,184.52
2018-01-12T09:41:50.778Z,175.38
2018-01-12T09:42:55.005Z,184.18
2018-01-12T09:43:59.224Z,213.65
2018-01-12T09:45:03.444Z,182.60
2018-01-12T09:46:08.493Z,175.17
2018-01-12T09:47:21.800Z,186.80
2018-01-12T09:48:31.384Z,186.70
2018-01-12T09:49:43.876Z,173.62
2018-01-12T09:50:48.089Z,189.20
2018-01-12T09:51:52.326Z,198.77
2018-01-12T09:52:56.370Z,193.52
2018-01-12T09:54:00.858Z,189.27
2018-01-12T09:55:05.642Z,185.27
2018-01-12T09:56:09.722Z,177.77
2018-01-12T09:57:13.717Z,186.48
2018-01-12T09:58:17.733Z,185.60
2018-01-12T09:59:30.885Z,196.68
2018-01-12T10:00:41.228Z,180.82
2018-01-12T10:01:45.359Z,188.35
2018-01-12T10:02:49.634Z,174.25
2018-01-12T10:03:54.641Z,178.35
2018-01-12T10:04:58.921Z,201.55
2018-01-12T10:06:04.142Z,210.30
2018-01-12T10:07:19.033Z,216.82
2018-01-12T10:08:26.693Z,207.95
2018-01-12T10:09:32.611Z,222.82
2018-01-12T10:10:36.837Z,236.57
2018-01-12T10:11:40.879Z,226.85
2018-01-12T10:12:44.876Z,220.98
2018-01-12T10:13:48.925Z,219.85
2018-01-12T10:14:53.033Z,215.48
2018-01-12T10:15:57.217Z,229.63
2018-01-12T10:17:01.356Z,224.85
2018-01-12T10:18:13.429Z,216.00
2018-01-12T10:19:17.639Z,217.65
2018-01-12T10:20:30.491Z,207.52
2018-01-12T10:21:42.053Z,229.75
2018-01-12T10:22:46.176Z,209.32
2018-01-12T10:23:51.213Z,210.55
2018-01-12T10:24:56.218Z,206.18
2018-01-12T10:26:00.405Z,208.50
2018-01-12T10:27:04.670Z,207.75
2018-01-12T10:28:08.773Z,200.13
2018-01-12T10:29:13.399Z,192.63
2018-01-12T10:30:24.172Z,208.13
2018-01-12T10:31:34.058Z,200.25
2018-01-12T10:32:45.288Z,197.45
2018-01-12T10:33:56.725Z,199.67
2018-01-12T10:35:09.644Z,211.77
2018-01-12T10:36:19.662Z,207.50
2018-01-12T10:37:23.724Z,218.10
2018-01-12T10:38:28.023Z,218.60
2018-01-12T10:39:32.080Z,227.45
2018-01-12T10:40:44.692Z,209.62
2018-01-12T10:41:57.937Z,194.25
2018-01-12T10:43:01.915Z,211.85
2018-01-12T10:44:06.098Z,187.40
2018-01-12T10:45:10.186Z,184.63
2018-01-12T10:46:23.837Z,189.40
2018-01-12T10:47:28.434Z,181.30
2018-01-12T10:48:38.274Z,188.02
2018-01-12T10:49:53.397Z,178.80
2018-01-12T10:51:00.193Z,178.15
2018-01-12T10:52:07.260Z,193.80
2018-01-12T10:53:12.870Z,189.47
2018-01-12T10:54:17.092Z,195.98
2018-01-12T10:55:22.025Z,187.65
2018-01-12T10:56:26.960Z,197.77
2018-01-12T10:57:31.093Z,204.50
2018-01-12T10:58:35.341Z,214.12
2018-01-12T10:59:40.533Z,200.70
2018-01-12T11:00:45.438Z,216.85
2018-01-12T11:01:49.468Z,207.02
2018-01-12T11:02:53.478Z,221.10
2018-01-12T11:03:57.497Z,217.10
2018-01-12T11:05:02.336Z,199.85
2018-01-12T11:06:06.697Z,211.18
2018-01-12T11:07:10.811Z,206.02
2018-01-12T11:08:14.887Z,200.13
2018-01-12T11:09:19.056Z,209.50
2018-01-12T11:10:23.340Z,205.93
2018-01-12T11:11:28.382Z,214.70
2018-01-12T11:12:32.603Z,288.30
2018-01-12T11:13:36.835Z,230.10
2018-01-12T11:14:41.145Z,222.43
2018-01-12T11:15:45.328Z,216.38
2018-01-12T11:16:49.594Z,207.48
2018-01-12T11:17:54.593Z,217.10
2018-01-12T11:18:58.811Z,207.27
2018-01-12T11:20:02.857Z,229.48
2018-01-12T11:21:06.883Z,222.55
2018-01-12T11:22:11.152Z,220.75
2018-01-12T11:23:15.134Z,206.10
2018-01-12T11:24:20.044Z,205.73
2018-01-12T11:25:24.875Z,212.43
2018-01-12T11:26:30.081Z,218.23
2018-01-12T11:27:34.234Z,205.00
2018-01-12T11:28:38.462Z,208.70
2018-01-12T11:29:42.891Z,212.40
2018-01-12T11:30:47.005Z,209.70
2018-01-12T11:31:51.811Z,206.70
2018-01-12T11:32:55.825Z,209.35
2018-01-12T11:33:59.947Z,201.93
2018-01-12T11:35:04.796Z,211.12
2018-01-12T11:36:08.805Z,219.23
2018-01-12T11:37:12.810Z,205.65
2018-01-12T11:38:16.810Z,213.18
2018-01-12T11:39:20.864Z,211.27
2018-01-12T11:40:25.786Z,210.82
2018-01-12T11:41:30.831Z,220.55
2018-01-12T11:42:34.985Z,216.88
2018-01-12T11:43:39.274Z,212.68
2018-01-12T11:44:43.475Z,210.85
2018-01-12T11:45:47.997Z,229.97
2018-01-12T11:46:52.986Z,232.68
2018-01-12T11:47:58.004Z,251.12
2018-01-12T11:49:02.251Z,231.93
2018-01-12T11:50:06.574Z,210.63
2018-01-12T11:51:10.944Z,207.45
2018-01-12T11:52:15.511Z,216.40
2018-01-12T11:53:20.475Z,207.75
2018-01-12T11:54:25.714Z,211.27
2018-01-12T11:55:29.946Z,225.38
2018-01-12T11:56:34.223Z,224.52
2018-01-12T11:57:38.336Z,215.95
2018-01-12T11:58:42.357Z,219.27
2018-01-12T11:59:46.457Z,220.35
2018-01-12T12:00:50.611Z,223.55
2018-01-12T12:01:54.793Z,236.45
2018-01-12T12:02:59.610Z,228.02
2018-01-12T12:04:04.740Z,225.95
2018-01-12T12:05:09.539Z,233.38
2018-01-12T12:06:13.662Z,228.13
2018-01-12T12:07:23.584Z,238.23
2018-01-12T12:08:28.419Z,250.50
2018-01-12T12:09:33.510Z,248.35
2018-01-12T12:10:38.493Z,236.43
2018-01-12T12:11:43.604Z,223.80
2018-01-12T12:12:47.635Z,228.48
2018-01-12T12:13:51.853Z,258.10
2018-01-12T12:14:55.880Z,259.85
2018-01-12T12:15:59.907Z,245.80
2018-01-12T12:17:04.926Z,231.82
2018-01-12T12:18:09.389Z,240.80
2018-01-12T12:19:13.402Z,241.20
2018-01-12T12:20:18.435Z,249.85
2018-01-12T12:21:22.529Z,241.15
2018-01-12T12:22:26.659Z,248.93
2018-01-12T12:23:31.641Z,242.50
2018-01-12T12:24:35.700Z,247.68
2018-01-12T12:25:40.865Z,240.02
2018-01-12T12:26:45.135Z,240.62
2018-01-12T12:27:49.674Z,244.05
2018-01-12T12:28:53.753Z,249.32
2018-01-12T12:29:58.274Z,237.98
2018-01-12T12:31:02.423Z,258.67
2018-01-12T12:32:06.607Z,254.02
2018-01-12T12:33:10.707Z,258.48
2018-01-12T12:34:14.738Z,253.18
2018-01-12T12:35:19.674Z,244.93
2018-01-12T12:36:24.580Z,235.93
2018-01-12T12:37:28.615Z,245.43
2018-01-12T12:38:32.850Z,241.73
2018-01-12T12:39:37.205Z,227.30
2018-01-12T12:40:41.264Z,242.32
2018-01-12T12:41:45.350Z,237.90
2018-01-12T12:42:49.401Z,231.68
2018-01-12T12:43:53.666Z,225.30
2018-01-12T12:44:57.924Z,222.25
2018-01-12T12:46:02.848Z,232.30
2018-01-12T12:47:07.890Z,227.57
2018-01-12T12:48:12.171Z,233.38
2018-01-12T12:49:17.226Z,379.75
2018-01-12T12:50:21.455Z,318.52
2018-01-12T12:51:25.666Z,255.77
2018-01-12T12:52:30.288Z,223.62
2018-01-12T12:53:34.574Z,241.03
2018-01-12T12:54:38.698Z,248.23
2018-01-12T12:55:42.955Z,226.82
2018-01-12T12:56:47.140Z,226.93
2018-01-12T12:57:51.347Z,234.15
2018-01-12T12:58:56.502Z,238.70
2018-01-12T13:00:00.871Z,237.27
2018-01-12T13:01:05.012Z,234.12
2018-01-12T13:02:09.154Z,237.00
2018-01-12T13:03:13.457Z,239.05
2018-01-12T13:04:17.610Z,238.23
2018-01-12T13:05:22.520Z,240.60
2018-01-12T13:06:27.413Z,236.93
2018-01-12T13:07:32.410Z,234.98
2018-01-12T13:08:36.561Z,250.68
2018-01-12T13:09:41.481Z,234.37
2018-01-12T13:10:46.802Z,229.35
2018-01-12T13:11:51.068Z,246.68
2018-01-12T13:12:55.122Z,237.10
2018-01-12T13:13:59.923Z,240.85
2018-01-12T13:15:04.017Z,226.90
2018-01-12T13:16:08.157Z,241.23
2018-01-12T13:17:13.180Z,236.15
2018-01-12T13:18:18.004Z,235.50
2018-01-12T13:19:22.980Z,227.87
2018-01-12T13:20:27.076Z,229.00
2018-01-12T13:21:31.215Z,233.13
2018-01-12T13:22:35.349Z,242.75
2018-01-12T13:23:39.370Z,227.10
2018-01-12T13:24:43.474Z,223.98
2018-01-12T13:25:47.593Z,233.23
2018-01-12T13:26:52.465Z,218.77
2018-01-12T13:27:56.711Z,226.62
2018-01-12T13:29:00.923Z,223.02
2018-01-12T13:30:05.851Z,222.25
2018-01-12T13:31:09.945Z,224.07
2018-01-12T13:32:14.345Z,230.95
2018-01-12T13:33:18.441Z,221.62
2018-01-12T13:34:22.492Z,239.75
2018-01-12T13:35:26.473Z,234.37
2018-01-12T13:36:30.568Z,244.15
2018-01-12T13:37:34.702Z,307.52
2018-01-12T13:38:39.497Z,261.95
2018-01-12T13:39:43.861Z,248.80
2018-01-12T13:40:47.997Z,249.25
2018-01-12T13:41:52.333Z,244.82
2018-01-12T13:42:56.584Z,249.43
2018-01-12T13:44:01.429Z,239.63
2018-01-12T13:45:05.623Z,297.85
2018-01-12T13:46:10.151Z,307.65